NCAR-RAP Real-Time Weather Data

Output produced by METARs form (19 June 2019  12:05 UTC)
found at http://weather.rap.ucar.edu/surface/
 
KINL 191055Z AUTO 00000KT 10SM CLR 07/07 A2989 RMK AO2 SLP126 T00670067
KINL 190955Z AUTO 00000KT 10SM CLR 07/06 A2990 RMK AO2 SLP127 T00670061
KINL 190938Z AUTO 00000KT 3SM BR CLR 07/07 A2990 RMK AO2 T00670067
KINL 190929Z AUTO 00000KT 1 3/4SM BR CLR 07/07 A2990 RMK AO2 T00670067
KINL 190915Z AUTO 00000KT 3SM BR CLR 07/07 A2990 RMK AO2 T00720072
KINL 190855Z AUTO 00000KT 1SM BR CLR 07/07 A2990 RMK AO2 SLP129 T00670067 56005
KINL 190843Z AUTO 00000KT 1 1/2SM BR CLR 07/07 A2990 RMK AO2 T00720072
KINL 190828Z AUTO 00000KT 3SM BR CLR 08/08 A2990 RMK AO2 T00780078
KINL 190813Z AUTO 00000KT 1 3/4SM BR CLR 08/08 A2990 RMK AO2 VIS 3/4V5 T00780078
KINL 190755Z AUTO 00000KT 10SM CLR 09/09 A2991 RMK AO2 SLP131 T00890089
KINL 190711Z AUTO 00000KT 7SM CLR 09/09 A2992 RMK AO2 T00890089
KINL 190704Z AUTO 00000KT 2 1/2SM BR FEW110 09/09 A2992 RMK AO2 T00890089
KINL 190655Z AUTO 00000KT 4SM BR FEW110 09/09 A2992 RMK AO2 SLP134 T00890089
KINL 190555Z AUTO 00000KT 10SM BKN110 11/11 A2992 RMK AO2 SLP135 T01110106 10211 20111 402280078 57000
KINL 190455Z AUTO 00000KT 10SM OVC110 12/11 A2992 RMK AO2 SLP135 T01220111
KINL 190355Z AUTO 00000KT 10SM OVC110 14/12 A2992 RMK AO2 SLP135 T01390117
KINL 190255Z AUTO 00000KT 10SM OVC110 15/12 A2992 RMK AO2 SLP135 T01500122 51002
KINL 190155Z AUTO 00000KT 10SM SCT090 OVC110 17/12 A2992 RMK AO2 SLP134 T01720117
KINL 190055Z AUTO 00000KT 10SM OVC110 20/09 A2992 RMK AO2 SLP132 T02000094
KINL 182355Z AUTO 07006KT 10SM OVC110 21/08 A2992 RMK AO2 SLP132 T02110083 10228 20189 56008
KINL 182255Z AUTO 04005KT 10SM FEW090 21/06 A2992 RMK AO2 SLP135 T02110056
KINL 182155Z AUTO 06008KT 10SM CLR 22/09 A2993 RMK AO2 SLP138 T02170094
KINL 182055Z AUTO VRB05KT 10SM CLR 22/09 A2994 RMK AO2 SLP141 T02170094 56015
KINL 181955Z AUTO 10SM CLR 22/10 A2995 RMK AO2 SLP143 T02170100
KINL 181855Z AUTO 05008KT 10SM CLR 20/11 A2997 RMK AO2 SLP151 T02000106
KINL 181755Z AUTO VRB05KT 10SM OVC110 19/10 A2999 RMK AO2 SLP157 T01940100 10200 20111 58004
KINL 181655Z AUTO 01006KT 10SM OVC110 18/12 A2999 RMK AO2 SLP160 T01830117
KINL 181555Z AUTO 03007KT 10SM FEW065 OVC110 17/12 A3000 RMK AO2 SLP161 T01670117